首页
METAR-TAF:

METAR-TAF

机场 :

成都双流国际机场

成都, 中华人民共和国

纬度: 30-40N, 经度: 104-01E, 海拔: 508米

当前天气观测

该预报发布于29分钟前的00:00 UTC
风速2节,风向西南
温度 13°C
湿度 94%
气压 1008 hPa
能見度: 2800
散云层高于5000英尺
轻雾

METAR: ZUUU 190000Z 23001MPS 2800 BR SCT050 13/12 Q1008 BECMG TL0110 3000

时间: 08:29 (00:29 UTC)

预报

该预报发布于3小时和59分钟前的20:30 UTC
预报有效从19日的 00点(UTC)到 19日的 24点(UTC)
风速6节,风向西转西北
能見度: 2700
散云层高于5000英尺
轻雾
成为
从 19日的 00点(UTC)到 19日的 01点(UTC)
能見度: 3500

TAF: ZUUU 182030Z 1900/1924 30003MPS 2700 BR SCT050 TX19/1907Z TN11/1923Z BECMG 1900/1901 3500

超过4000个机场的气象观测和天气预报(METAR&TAF报告)。

可查询的气象台以黄色和红色小点在地图上表示。

将鼠标移到小点上方,可查看气象台名称。

然后点击查看天气观测和预报。

如需切换地图:点击带黑十字的绿色按钮放大地图;点击带横线的绿色按钮缩小地图;或者点击绿色箭头查看邻近地区的地图。


METAR-TAF: